Arroyo Cabral, Argentina
Current Conditions -  °F | °C
As of 2:00 PM on Sunday 23 Nov 2014 (Local Time) from SAOC Reporting Station
Clear Clear  
Wind Chill: 31°   Ceiling: Unl
Heat Index: 31°   Visibility: 6mi
Dew Point:   Wind: 35mph
Humidity: 22%   Direction: 360°N
Pressure: 29.68"   Gusts: 47mph
Location:  32.52°S, 63.43°W
Report Text: SAOC 231700Z 36030G41KT CAVOK 31/07 Q1005
Loading
Personal Weather Stations






























Interactive Weather Map New forecast layout! Learn more

10-Day Weather Forecast

Advertisements
Track Severe Weather on mobile